Ellerslie, Maryland
Current Conditions -  °F | °C
As of 7:07 PM on Monday 20 Oct 2014 (Local Time) from KCBE Reporting Station
Broken Clouds Broken Clouds  
Wind Chill: 54°   Ceiling: 9000
Heat Index: 54°   Visibility: 10mi
Dew Point: 41°   Wind: 0mph
Humidity: 62%   Direction: NA
Pressure: 29.97"   Gusts: NA
Location:  39.72°N, 78.77°W
Report Text: KCBE 202307Z AUTO 00000KT 10SM SCT015 SCT028 BKN090 12/05 A2997 RMK AO1
Loading
Personal Weather Stations






























Interactive Weather Map
Tropical Storm Tracking
New forecast layout! Learn more

10-Day Weather Forecast

Advertisements
Track Severe Weather on mobile